createdAt,value
2019-01-05T00:00:22.889Z,15.23
2019-01-05T00:03:25.209Z,17.10
2019-01-05T00:09:31.811Z,16.90
2019-01-05T00:12:33.691Z,15.40
2019-01-05T00:15:54.626Z,16.60
2019-01-05T00:19:16.662Z,14.00
2019-01-05T00:22:23.481Z,15.18
2019-01-05T00:25:45.541Z,15.25
2019-01-05T00:31:53.337Z,17.05
2019-01-05T00:34:55.595Z,15.85
2019-01-05T00:41:02.413Z,17.00
2019-01-05T00:50:35.041Z,16.12
2019-01-05T00:53:38.587Z,15.10
2019-01-05T00:57:01.759Z,15.63
2019-01-05T01:03:08.520Z,15.13
2019-01-05T01:09:36.233Z,15.90
2019-01-05T01:12:40.305Z,12.43
2019-01-05T01:16:01.524Z,13.62
2019-01-05T01:22:07.648Z,14.20
2019-01-05T01:28:14.420Z,17.02
2019-01-05T01:31:18.844Z,16.60
2019-01-05T01:34:40.393Z,14.40
2019-01-05T01:37:47.366Z,15.35
2019-01-05T01:44:22.045Z,13.53
2019-01-05T01:47:22.875Z,15.20
2019-01-05T01:50:55.767Z,14.03
2019-01-05T02:01:11.433Z,14.55
2019-01-05T02:04:15.149Z,15.43
2019-01-05T02:10:38.691Z,13.28
2019-01-05T02:16:46.727Z,12.28
2019-01-05T02:20:09.866Z,11.60
2019-01-05T02:23:33.284Z,12.00
2019-01-05T02:26:35.723Z,11.25
2019-01-05T02:32:51.081Z,9.53
2019-01-05T02:36:13.013Z,13.05
2019-01-05T02:39:39.760Z,10.65
2019-01-05T02:43:00.306Z,11.48
2019-01-05T02:46:24.280Z,10.25
2019-01-05T02:49:45.622Z,11.85
2019-01-05T02:52:49.574Z,13.13
2019-01-05T02:58:53.372Z,11.65
2019-01-05T03:02:14.708Z,11.12
2019-01-05T03:08:20.341Z,11.12
2019-01-05T03:11:41.394Z,12.90
2019-01-05T03:14:53.321Z,12.28
2019-01-05T03:18:00.671Z,11.70
2019-01-05T03:21:21.606Z,11.15
2019-01-05T03:24:48.239Z,11.97
2019-01-05T03:28:09.818Z,10.78
2019-01-05T03:34:51.191Z,10.80
2019-01-05T03:37:58.412Z,10.30
2019-01-05T03:41:21.593Z,11.75
2019-01-05T03:47:25.357Z,11.48
2019-01-05T03:54:08.599Z,10.08
2019-01-05T03:57:05.402Z,8.95
2019-01-05T04:03:17.651Z,10.75
2019-01-05T04:06:40.556Z,10.35
2019-01-05T04:10:06.608Z,9.48
2019-01-05T04:13:25.330Z,9.28
2019-01-05T04:16:46.452Z,9.50
2019-01-05T04:19:48.001Z,8.55
2019-01-05T04:23:12.191Z,9.45
2019-01-05T04:29:37.863Z,10.90
2019-01-05T04:32:38.809Z,9.98
2019-01-05T04:35:40.941Z,9.48
2019-01-05T04:38:42.105Z,10.03
2019-01-05T04:42:02.557Z,10.40
2019-01-05T04:55:12.236Z,9.85
2019-01-05T04:58:31.023Z,9.98
2019-01-05T05:01:51.704Z,10.05
2019-01-05T05:05:16.815Z,13.05
2019-01-05T05:08:37.549Z,10.93
2019-01-05T05:11:58.322Z,9.53
2019-01-05T05:14:59.521Z,10.28
2019-01-05T05:18:00.551Z,10.30
2019-01-05T05:21:20.875Z,10.45
2019-01-05T05:24:21.668Z,10.82
2019-01-05T05:27:23.207Z,10.13
2019-01-05T05:30:45.289Z,10.30
2019-01-05T05:37:53.609Z,9.98
2019-01-05T05:41:21.157Z,9.80
2019-01-05T05:44:48.916Z,9.13
2019-01-05T05:48:16.435Z,9.50
2019-01-05T05:51:44.030Z,10.88
2019-01-05T05:55:11.518Z,11.80
2019-01-05T05:58:38.982Z,9.90
2019-01-05T06:02:06.546Z,9.78
2019-01-05T06:05:26.809Z,8.60
2019-01-05T06:08:47.037Z,9.90
2019-01-05T06:18:09.261Z,10.18
2019-01-05T06:21:30.193Z,10.35
2019-01-05T06:24:42.556Z,9.43
2019-01-05T06:27:52.948Z,9.05
2019-01-05T06:30:54.389Z,9.83
2019-01-05T06:33:56.301Z,9.80
2019-01-05T06:37:00.081Z,9.08
2019-01-05T06:40:21.673Z,11.55
2019-01-05T06:43:23.602Z,11.33
2019-01-05T06:46:31.184Z,9.83
2019-01-05T06:49:52.353Z,11.48
2019-01-05T06:59:22.080Z,10.50
2019-01-05T07:08:48.409Z,8.98
2019-01-05T07:11:49.278Z,10.10
2019-01-05T07:15:10.390Z,11.97
2019-01-05T07:18:11.732Z,9.78
2019-01-05T07:21:14.023Z,11.57
2019-01-05T07:27:20.155Z,8.78
2019-01-05T07:33:25.320Z,9.93
2019-01-05T07:39:30.033Z,11.78
2019-01-05T07:49:45.062Z,9.33
2019-01-05T07:52:45.903Z,8.38
2019-01-05T07:55:48.372Z,10.45
2019-01-05T07:58:49.287Z,8.95
2019-01-05T08:01:50.463Z,9.63
2019-01-05T08:04:51.692Z,9.78
2019-01-05T08:07:52.924Z,11.38
2019-01-05T08:10:53.807Z,10.93
2019-01-05T08:14:15.566Z,12.50
2019-01-05T08:17:22.337Z,11.90
2019-01-05T08:20:48.311Z,12.33
2019-01-05T08:24:09.972Z,11.97
2019-01-05T08:27:17.240Z,12.78
2019-01-05T08:30:18.354Z,13.48
2019-01-05T08:36:58.421Z,12.75
2019-01-05T08:43:24.862Z,12.88
2019-01-05T08:46:27.586Z,13.00
2019-01-05T08:52:35.380Z,13.98
2019-01-05T08:55:36.353Z,12.60
2019-01-05T09:02:16.870Z,14.05
2019-01-05T09:05:23.375Z,14.83
2019-01-05T09:08:44.932Z,16.42
2019-01-05T09:11:52.532Z,14.98
2019-01-05T09:18:18.448Z,14.53
2019-01-05T09:21:19.469Z,15.40
2019-01-05T09:24:42.057Z,15.28
2019-01-05T09:27:44.779Z,17.17
2019-01-05T09:30:47.259Z,16.37
2019-01-05T09:40:45.754Z,13.83
2019-01-05T09:43:48.018Z,16.48
2019-01-05T09:46:50.433Z,18.67
2019-01-05T09:52:57.284Z,16.90
2019-01-05T09:55:58.671Z,16.40
2019-01-05T10:02:05.695Z,15.53
2019-01-05T10:05:08.316Z,13.95
2019-01-05T10:08:12.099Z,14.65
2019-01-05T10:11:33.981Z,13.98
2019-01-05T10:18:18.179Z,12.70
2019-01-05T10:21:23.997Z,13.15
2019-01-05T10:24:45.223Z,13.45
2019-01-05T10:27:46.439Z,12.55
2019-01-05T10:31:01.571Z,13.93
2019-01-05T10:37:26.303Z,12.78
2019-01-05T10:40:46.941Z,12.07
2019-01-05T10:43:50.777Z,11.48
2019-01-05T10:47:10.883Z,10.72
2019-01-05T10:50:11.922Z,9.53
2019-01-05T10:53:32.044Z,9.98
2019-01-05T10:56:33.088Z,9.53
2019-01-05T10:59:37.024Z,10.65
2019-01-05T11:02:37.879Z,10.43
2019-01-05T11:09:09.729Z,9.53
2019-01-05T11:12:31.031Z,8.55
2019-01-05T11:18:37.774Z,9.03
2019-01-05T11:21:44.495Z,7.40
2019-01-05T11:25:03.079Z,7.53
2019-01-05T11:28:24.915Z,7.05
2019-01-05T11:31:26.896Z,6.97
2019-01-05T11:34:31.405Z,6.58
2019-01-05T11:40:39.892Z,7.00
2019-01-05T11:53:18.985Z,6.15
2019-01-05T11:56:39.314Z,7.78
2019-01-05T11:59:41.167Z,6.92
2019-01-05T12:02:42.507Z,7.58
2019-01-05T12:05:44.071Z,7.10
2019-01-05T12:08:45.177Z,6.10
2019-01-05T12:11:46.110Z,7.28
2019-01-05T12:17:59.021Z,9.25
2019-01-05T12:21:00.271Z,9.28
2019-01-05T12:24:01.248Z,8.13
2019-01-05T12:27:02.230Z,8.80
2019-01-05T12:30:03.375Z,8.30
2019-01-05T12:33:04.565Z,9.18
2019-01-05T12:36:05.735Z,8.58
2019-01-05T12:39:07.332Z,7.55
2019-01-05T12:42:08.211Z,7.85
2019-01-05T12:45:08.834Z,9.83
2019-01-05T12:48:31.164Z,8.33
2019-01-05T12:51:39.594Z,7.55
2019-01-05T12:54:37.613Z,7.15
2019-01-05T12:57:58.685Z,7.30
2019-01-05T13:00:59.573Z,7.72
2019-01-05T13:04:07.069Z,7.90
2019-01-05T13:07:33.676Z,7.50
2019-01-05T13:10:55.993Z,7.47
2019-01-05T13:13:56.703Z,6.28
2019-01-05T13:17:17.946Z,6.80
2019-01-05T13:20:21.723Z,7.40
2019-01-05T13:26:38.794Z,7.62
2019-01-05T13:29:41.927Z,7.30
2019-01-05T13:32:43.101Z,6.72
2019-01-05T13:38:49.765Z,6.85
2019-01-05T13:42:05.000Z,6.03
2019-01-05T13:45:17.095Z,7.87
2019-01-05T13:48:07.417Z,6.65
2019-01-05T13:51:28.633Z,6.83
2019-01-05T14:00:57.705Z,6.40
2019-01-05T14:04:00.142Z,6.27
2019-01-05T14:07:04.956Z,6.50
2019-01-05T14:10:26.961Z,6.77
2019-01-05T14:16:32.650Z,5.60
2019-01-05T14:19:49.775Z,7.75
2019-01-05T14:22:51.280Z,6.72
2019-01-05T14:25:52.205Z,6.30
2019-01-05T14:28:56.178Z,7.00
2019-01-05T14:35:28.924Z,5.40
2019-01-05T14:38:31.557Z,5.70
2019-01-05T14:44:37.281Z,6.10
2019-01-05T14:47:38.331Z,6.35
2019-01-05T14:50:58.660Z,6.08
2019-01-05T14:54:19.847Z,5.47
2019-01-05T14:57:21.131Z,4.33
2019-01-05T15:00:28.576Z,5.90
2019-01-05T15:03:49.501Z,7.08
2019-01-05T15:06:51.800Z,5.05
2019-01-05T15:09:53.334Z,7.10
2019-01-05T15:13:14.532Z,4.87
2019-01-05T15:16:21.556Z,5.20
2019-01-05T15:19:25.545Z,5.60
2019-01-05T15:22:48.518Z,5.43
2019-01-05T15:28:55.042Z,6.13
2019-01-05T15:31:55.980Z,5.60
2019-01-05T15:38:00.376Z,5.80
2019-01-05T15:44:05.975Z,6.20
2019-01-05T15:46:57.486Z,5.95
2019-01-05T15:50:05.957Z,5.10
2019-01-05T15:53:14.749Z,5.78
2019-01-05T15:56:23.214Z,6.05
2019-01-05T15:59:32.119Z,5.85
2019-01-05T16:03:00.037Z,5.28
2019-01-05T16:06:08.569Z,5.08
2019-01-05T16:09:17.034Z,5.90
2019-01-05T16:12:25.544Z,5.60
2019-01-05T16:15:34.405Z,4.80
2019-01-05T16:18:42.910Z,4.97
2019-01-05T16:21:51.824Z,4.55
2019-01-05T16:25:00.362Z,5.70
2019-01-05T16:28:08.880Z,4.70
2019-01-05T16:31:17.338Z,4.65
2019-01-05T16:34:25.867Z,4.70
2019-01-05T16:40:31.009Z,7.20
2019-01-05T16:43:27.265Z,6.50
2019-01-05T16:49:30.875Z,5.47
2019-01-05T16:55:58.892Z,6.72
2019-01-05T16:59:00.119Z,5.45
2019-01-05T17:02:03.533Z,5.55
2019-01-05T17:05:05.850Z,5.30
2019-01-05T17:11:11.633Z,6.10
2019-01-05T17:14:15.705Z,5.97
2019-01-05T17:17:37.240Z,4.70
2019-01-05T17:20:41.361Z,5.40
2019-01-05T17:24:02.948Z,5.30
2019-01-05T17:30:08.332Z,5.35
2019-01-05T17:33:09.284Z,5.03
2019-01-05T17:36:13.683Z,4.75
2019-01-05T17:39:14.654Z,5.58
2019-01-05T17:42:15.307Z,5.92
2019-01-05T17:45:21.832Z,6.00
2019-01-05T17:48:17.582Z,5.97
2019-01-05T17:51:19.779Z,6.05
2019-01-05T17:54:22.007Z,5.70
2019-01-05T17:57:23.188Z,5.58
2019-01-05T18:00:29.994Z,4.78
2019-01-05T18:06:27.370Z,5.17
2019-01-05T18:09:49.102Z,5.90
2019-01-05T18:15:49.231Z,4.47
2019-01-05T18:22:15.987Z,4.80
2019-01-05T18:28:22.507Z,4.87
2019-01-05T18:34:27.666Z,4.95
2019-01-05T18:37:28.612Z,5.30
2019-01-05T18:40:29.676Z,5.35
2019-01-05T18:43:31.061Z,4.65
2019-01-05T18:46:32.399Z,4.58
2019-01-05T18:49:58.607Z,5.25
2019-01-05T18:52:55.084Z,5.05
2019-01-05T18:56:15.489Z,5.62
2019-01-05T18:59:24.016Z,5.47
2019-01-05T19:05:43.865Z,6.40
2019-01-05T19:08:52.369Z,6.08
2019-01-05T19:12:08.374Z,5.03
2019-01-05T19:15:30.418Z,4.42
2019-01-05T19:18:38.898Z,4.60
2019-01-05T19:21:47.435Z,5.17
2019-01-05T19:24:55.887Z,5.42
2019-01-05T19:28:04.420Z,6.25
2019-01-05T19:31:12.902Z,6.87
2019-01-05T19:34:21.478Z,6.15
2019-01-05T19:37:42.287Z,6.25
2019-01-05T19:40:44.761Z,6.30
2019-01-05T19:43:48.619Z,5.67
2019-01-05T19:47:09.226Z,6.40
2019-01-05T19:53:14.688Z,5.17
2019-01-05T19:56:15.730Z,4.75
2019-01-05T19:59:16.420Z,4.45
2019-01-05T20:02:15.086Z,4.75
2019-01-05T20:05:16.366Z,4.35
2019-01-05T20:08:17.782Z,4.50
2019-01-05T20:11:38.441Z,4.50
2019-01-05T20:14:42.191Z,4.20
2019-01-05T20:18:08.616Z,3.72
2019-01-05T20:24:39.969Z,4.30
2019-01-05T20:28:02.072Z,5.10
2019-01-05T20:31:03.045Z,4.60
2019-01-05T20:34:04.096Z,4.42
2019-01-05T20:40:04.794Z,5.40
2019-01-05T20:43:07.550Z,6.42
2019-01-05T20:49:14.631Z,6.30
2019-01-05T20:55:21.024Z,4.83
2019-01-05T21:01:29.441Z,4.97
2019-01-05T21:07:34.296Z,4.50
2019-01-05T21:10:36.435Z,3.90
2019-01-05T21:13:38.548Z,4.40
2019-01-05T21:16:40.695Z,3.92
2019-01-05T21:20:02.729Z,3.70
2019-01-05T21:22:54.598Z,3.50
2019-01-05T21:29:20.233Z,4.40
2019-01-05T21:32:21.556Z,3.90
2019-01-05T21:38:27.494Z,5.90
2019-01-05T21:41:28.710Z,4.20
2019-01-05T21:47:54.253Z,4.05
2019-01-05T21:54:25.889Z,4.55
2019-01-05T21:57:21.739Z,4.05
2019-01-05T22:03:27.502Z,4.62
2019-01-05T22:06:29.401Z,4.35
2019-01-05T22:12:37.960Z,4.03
2019-01-05T22:16:05.000Z,5.80
2019-01-05T22:19:06.569Z,4.85
2019-01-05T22:22:05.760Z,5.00
2019-01-05T22:31:57.950Z,4.43
2019-01-05T22:35:00.527Z,4.42
2019-01-05T22:38:01.631Z,4.85
2019-01-05T22:41:08.440Z,4.63
2019-01-05T22:44:28.575Z,4.33
2019-01-05T22:47:32.349Z,4.37
2019-01-05T22:50:58.977Z,3.90
2019-01-05T22:57:20.085Z,4.10
2019-01-05T23:00:21.436Z,4.20
2019-01-05T23:06:47.404Z,3.58
2019-01-05T23:09:48.193Z,3.53
2019-01-05T23:13:02.548Z,4.22
2019-01-05T23:16:11.996Z,4.20
2019-01-05T23:22:43.390Z,3.72
2019-01-05T23:25:45.685Z,3.75
2019-01-05T23:28:48.085Z,3.93
2019-01-05T23:31:49.092Z,3.87
2019-01-05T23:38:37.724Z,5.72
2019-01-05T23:41:38.817Z,4.50
2019-01-05T23:44:39.924Z,6.12
2019-01-05T23:47:41.122Z,4.80
2019-01-05T23:51:01.528Z,4.25
2019-01-05T23:57:06.900Z,5.95
